Time;durP1;ratioP1;P1;durP2;ratioP2;P2;SDS_P1;SDS_P2;PMS_P1;PMS_P2;Temp;Humidity;BMP_temperature;BMP_pressure;BME280_temperature;BME280_humidity;BME280_pressure;Samples;Min_cycle;Max_cycle;Signal;HPM_P1;HPM_P2
2021/12/04 00:01:32;;;;;;;1.08;0.70;;;25.20;50.90;;;;;;5073496;28;20285;-50
2021/12/04 00:04:03;;;;;;;1.33;0.60;;;25.30;50.90;;;;;;5073320;28;20293;-50
2021/12/04 00:06:37;;;;;;;1.67;0.80;;;25.30;50.90;;;;;;5071849;28;20242;-45
2021/12/04 00:09:10;;;;;;;1.50;0.70;;;25.30;50.80;;;;;;5075643;28;20213;-45
2021/12/04 00:11:51;;;;;;;2.05;0.70;;;25.30;50.80;;;;;;5086764;28;20228;-48
2021/12/04 00:14:22;;;;;;;1.27;0.68;;;25.40;51.00;;;;;;5071995;28;20217;-49
2021/12/04 00:16:53;;;;;;;1.98;0.90;;;25.40;50.90;;;;;;5071572;28;20287;-46
2021/12/04 00:19:24;;;;;;;2.15;0.90;;;25.40;50.90;;;;;;5086099;28;20293;-45
2021/12/04 00:21:55;;;;;;;0.90;0.50;;;25.40;51.00;;;;;;5073072;28;20289;-49
2021/12/04 00:24:28;;;;;;;2.72;0.80;;;25.40;50.90;;;;;;5072412;28;20209;-46
2021/12/04 00:27:01;;;;;;;1.40;0.68;;;25.50;51.10;;;;;;5077088;28;20651;-52
2021/12/04 00:29:32;;;;;;;1.08;0.55;;;25.50;51.00;;;;;;5071578;28;20237;-45
2021/12/04 00:32:08;;;;;;;1.33;0.63;;;25.50;51.00;;;;;;5072771;28;20301;-53
2021/12/04 00:34:41;;;;;;;0.70;0.60;;;25.50;50.90;;;;;;5071796;28;20194;-47
2021/12/04 00:37:34;;;;;;;1.05;0.60;;;25.60;50.90;;;;;;5071160;28;20190;-54
2021/12/04 00:51:19;;;;;;;1.33;0.65;;;25.80;50.70;;;;;;5072005;28;20291;-47
2021/12/04 00:53:54;;;;;;;0.90;0.50;;;25.80;50.60;;;;;;5088082;28;20683;-49
2021/12/04 00:56:24;;;;;;;2.15;0.70;;;25.80;50.60;;;;;;5086078;28;20229;-46
2021/12/04 00:58:57;;;;;;;0.80;0.50;;;25.80;50.50;;;;;;5082418;28;20254;-49
2021/12/04 01:01:27;;;;;;;1.25;0.70;;;25.90;50.50;;;;;;5070850;28;20205;-48
2021/12/04 01:03:58;;;;;;;1.00;0.70;;;25.90;50.40;;;;;;5072253;28;20198;-50
2021/12/04 01:06:28;;;;;;;1.10;0.68;;;25.90;50.40;;;;;;5074262;28;20191;-45
2021/12/04 01:08:58;;;;;;;1.35;0.68;;;25.90;50.50;;;;;;5075067;28;20220;-45
2021/12/04 01:11:29;;;;;;;0.68;0.50;;;25.90;50.50;;;;;;5071720;28;20652;-52
2021/12/04 01:14:01;;;;;;;2.05;0.85;;;26.00;50.50;;;;;;5072083;28;20281;-46
2021/12/04 01:16:32;;;;;;;1.92;0.60;;;26.00;50.50;;;;;;5073124;28;20277;-53
2021/12/04 01:19:02;;;;;;;1.95;0.60;;;26.00;50.40;;;;;;5069810;28;20306;-45
2021/12/04 01:21:33;;;;;;;1.20;0.77;;;26.10;50.50;;;;;;5084209;28;20208;-45
2021/12/04 01:24:03;;;;;;;1.13;0.60;;;26.10;50.40;;;;;;5076530;28;20194;-49
2021/12/04 01:26:33;;;;;;;1.40;0.70;;;26.10;50.30;;;;;;5074533;28;20200;-49
2021/12/04 01:29:06;;;;;;;1.05;0.52;;;26.10;50.30;;;;;;5076337;28;20282;-47
2021/12/04 01:31:36;;;;;;;0.88;0.50;;;26.20;50.30;;;;;;5085327;28;20300;-49
2021/12/04 01:34:07;;;;;;;1.42;0.70;;;26.20;50.30;;;;;;5084777;28;20590;-46
2021/12/04 01:36:37;;;;;;;0.90;0.52;;;26.20;50.20;;;;;;5077141;28;20281;-50
2021/12/04 01:39:09;;;;;;;0.60;0.50;;;26.20;50.20;;;;;;5068537;28;20305;-49
2021/12/04 01:41:40;;;;;;;1.42;0.57;;;26.30;50.20;;;;;;5085100;28;20658;-46
2021/12/04 01:44:14;;;;;;;0.90;0.50;;;26.30;50.20;;;;;;5072088;28;20194;-47
2021/12/04 01:46:44;;;;;;;1.00;0.50;;;26.30;50.20;;;;;;5071175;28;20828;-46
2021/12/04 01:49:15;;;;;;;1.13;0.75;;;26.40;50.20;;;;;;5072213;28;20305;-53
2021/12/04 01:51:45;;;;;;;1.38;0.65;;;26.40;50.20;;;;;;5069874;28;20306;-52
2021/12/04 01:54:16;;;;;;;1.02;0.60;;;26.40;50.20;;;;;;5071511;28;20201;-45
2021/12/04 01:56:46;;;;;;;0.90;0.60;;;26.50;50.40;;;;;;5071710;28;20285;-45
2021/12/04 01:59:19;;;;;;;0.95;0.50;;;26.50;50.30;;;;;;5081101;28;20745;-52
2021/12/04 02:01:49;;;;;;;1.30;0.68;;;26.50;50.30;;;;;;5069636;28;20290;-51
2021/12/04 02:04:19;;;;;;;0.82;0.70;;;26.50;50.30;;;;;;5069761;28;20643;-50
2021/12/04 02:06:50;;;;;;;0.50;0.40;;;26.50;50.20;;;;;;5071736;28;20195;-49
2021/12/04 02:09:20;;;;;;;1.75;0.50;;;26.60;50.30;;;;;;5070381;28;20227;-46
2021/12/04 02:11:51;;;;;;;0.63;0.50;;;26.60;50.40;;;;;;5070241;28;20225;-47
2021/12/04 02:14:23;;;;;;;0.93;0.65;;;26.60;50.40;;;;;;5071367;28;20231;-45
2021/12/04 02:16:54;;;;;;;0.90;0.45;;;26.60;50.30;;;;;;5070374;28;20203;-53
2021/12/04 02:19:24;;;;;;;1.27;0.70;;;26.70;50.40;;;;;;5071428;28;20313;-45
2021/12/04 02:21:56;;;;;;;0.88;0.50;;;26.70;50.30;;;;;;5070789;28;20198;-50
2021/12/04 02:24:27;;;;;;;1.42;0.50;;;26.70;50.30;;;;;;5068311;28;20205;-45
2021/12/04 02:26:57;;;;;;;1.33;0.60;;;26.70;50.20;;;;;;5085181;28;20198;-47
2021/12/04 02:29:28;;;;;;;1.60;0.73;;;26.70;50.10;;;;;;5071093;28;20294;-45
2021/12/04 02:31:59;;;;;;;0.80;0.50;;;26.70;50.10;;;;;;5071632;28;20785;-51
2021/12/04 02:34:31;;;;;;;1.65;0.88;;;26.80;50.00;;;;;;5077999;28;20198;-46
2021/12/04 02:37:03;;;;;;;0.73;0.60;;;26.80;50.00;;;;;;5082377;28;20669;-47
2021/12/04 02:39:36;;;;;;;0.57;0.50;;;26.90;50.00;;;;;;5075186;28;20718;-46
2021/12/04 02:42:09;;;;;;;1.15;0.50;;;26.80;50.00;;;;;;5083780;28;20677;-51
2021/12/04 02:44:41;;;;;;;1.33;0.70;;;26.90;50.10;;;;;;5088056;28;20198;-49
2021/12/04 02:47:12;;;;;;;1.98;0.65;;;26.90;50.10;;;;;;5072772;28;20285;-46
2021/12/04 02:49:42;;;;;;;0.93;0.60;;;26.90;50.10;;;;;;5072515;28;20199;-50
2021/12/04 02:52:16;;;;;;;2.00;0.60;;;26.90;50.00;;;;;;5074352;28;20309;-46
2021/12/04 02:54:46;;;;;;;0.55;0.47;;;27.00;50.00;;;;;;5073279;28;20714;-48
2021/12/04 02:57:19;;;;;;;1.08;0.60;;;27.00;50.00;;;;;;5075188;28;20282;-46
2021/12/04 02:59:50;;;;;;;0.68;0.57;;;27.00;49.90;;;;;;5077365;28;20313;-51
2021/12/04 03:02:22;;;;;;;0.73;0.60;;;27.00;49.90;;;;;;5074698;28;20638;-46
2021/12/04 03:04:54;;;;;;;2.30;0.90;;;27.10;49.90;;;;;;5074874;28;20687;-49
2021/12/04 03:07:27;;;;;;;1.55;0.80;;;27.10;49.60;;;;;;5072141;28;20296;-49
2021/12/04 03:09:57;;;;;;;1.45;0.73;;;27.10;49.40;;;;;;5089245;28;20200;-55
2021/12/04 03:12:28;;;;;;;1.00;0.60;;;27.10;49.30;;;;;;5089314;28;20232;-51
2021/12/04 03:14:59;;;;;;;1.00;0.38;;;27.10;49.30;;;;;;5073500;28;20627;-52
2021/12/04 03:17:30;;;;;;;0.93;0.35;;;27.10;47.60;;;;;;5073542;28;21149;-50
2021/12/04 03:20:00;;;;;;;1.38;0.40;;;27.00;47.40;;;;;;5080796;28;20281;-53
2021/12/04 03:22:33;;;;;;;1.40;0.57;;;27.00;47.40;;;;;;5085731;28;20281;-55
2021/12/04 03:25:03;;;;;;;1.02;0.50;;;27.00;47.40;;;;;;5086447;28;20281;-56
2021/12/04 03:27:34;;;;;;;0.68;0.50;;;27.00;47.50;;;;;;5083480;28;20301;-58
2021/12/04 03:30:15;;;;;;;2.00;0.50;;;27.00;47.60;;;;;;5085395;28;20194;-59
2021/12/04 03:41:07;;;;;;;1.20;0.45;;;27.10;47.80;;;;;;5087927;28;20562;-56
2021/12/04 03:43:38;;;;;;;0.77;0.50;;;27.10;47.90;;;;;;5087102;28;20564;-53
2021/12/04 03:46:13;;;;;;;0.85;0.38;;;27.10;48.00;;;;;;5085138;28;20209;-51
2021/12/04 03:48:53;;;;;;;1.48;0.60;;;27.10;48.10;;;;;;5086325;28;20218;-53
2021/12/04 03:51:24;;;;;;;0.85;0.52;;;27.20;48.40;;;;;;5085991;28;20301;-59
2021/12/04 03:53:56;;;;;;;1.40;0.20;;;27.20;47.80;;;;;;5081628;28;20281;-55
2021/12/04 03:56:28;;;;;;;0.57;0.25;;;27.20;47.10;;;;;;5085813;28;20286;-50
2021/12/04 03:58:59;;;;;;;1.48;0.40;;;27.20;46.80;;;;;;5084869;28;20682;-55
2021/12/04 04:01:30;;;;;;;0.50;0.20;;;27.20;46.30;;;;;;5085189;28;20194;-58
2021/12/04 04:04:01;;;;;;;1.02;0.22;;;27.10;45.80;;;;;;5087946;28;20214;-58
2021/12/04 04:06:31;;;;;;;0.73;0.20;;;27.10;45.70;;;;;;5087497;28;20324;-59
2021/12/04 04:09:04;;;;;;;1.35;0.25;;;27.10;45.60;;;;;;5085517;28;20249;-58
2021/12/04 04:11:36;;;;;;;0.28;0.28;;;27.10;45.50;;;;;;5086411;28;20272;-53
2021/12/04 04:14:07;;;;;;;0.98;0.30;;;27.10;45.80;;;;;;5085830;28;20740;-56
2021/12/04 04:16:39;;;;;;;1.92;0.40;;;27.10;46.00;;;;;;5080489;28;20225;-56
2021/12/04 04:19:10;;;;;;;1.45;0.40;;;27.10;46.30;;;;;;5081207;28;21015;-54
2021/12/04 04:21:42;;;;;;;3.60;0.50;;;27.10;46.50;;;;;;5083365;28;20281;-52
2021/12/04 04:24:16;;;;;;;0.43;0.30;;;27.10;46.60;;;;;;5081986;28;20308;-56
2021/12/04 04:26:47;;;;;;;0.40;0.30;;;27.10;47.50;;;;;;5082072;28;20285;-57
2021/12/04 04:29:18;;;;;;;0.57;0.30;;;27.10;47.10;;;;;;5082736;28;20324;-47
2021/12/04 04:31:48;;;;;;;0.90;0.30;;;27.20;47.30;;;;;;5081612;28;20317;-57
2021/12/04 04:34:22;;;;;;;2.53;0.32;;;27.20;47.40;;;;;;5080731;28;20194;-55
2021/12/04 04:37:11;;;;;;;3.30;0.40;;;27.20;47.40;;;;;;5082473;28;20259;-55
2021/12/04 04:59:29;;;;;;;1.25;0.20;;;27.40;45.00;;;;;;5084245;28;20244;-53
2021/12/04 05:02:19;;;;;;;2.10;0.22;;;27.40;44.40;;;;;;5085789;28;20201;-58
2021/12/04 05:10:41;;;;;;;0.57;0.20;;;27.30;43.80;;;;;;5085374;28;20301;-52
2021/12/04 05:13:18;;;;;;;2.13;0.30;;;27.40;44.10;;;;;;5084521;28;20228;-48
2021/12/04 05:15:57;;;;;;;0.95;0.50;;;27.40;43.80;;;;;;5085703;28;20201;-56
2021/12/04 05:18:40;;;;;;;0.40;0.32;;;27.40;43.50;;;;;;5075881;28;20358;-51
2021/12/04 05:21:13;;;;;;;0.77;0.40;;;27.40;43.30;;;;;;5083879;28;20198;-57
2021/12/04 05:23:46;;;;;;;2.80;0.50;;;27.40;43.30;;;;;;5082593;28;20214;-52
2021/12/04 05:26:18;;;;;;;2.40;0.38;;;27.40;43.10;;;;;;5083183;28;20746;-54
2021/12/04 05:28:51;;;;;;;1.70;0.82;;;27.40;42.70;;;;;;5085555;28;21245;-54
2021/12/04 05:31:22;;;;;;;1.30;0.40;;;27.40;42.70;;;;;;5085249;28;20277;-56
2021/12/04 05:33:53;;;;;;;0.73;0.32;;;27.30;42.70;;;;;;5085380;28;20221;-42
2021/12/04 05:36:23;;;;;;;1.52;0.50;;;27.30;43.20;;;;;;5085684;28;20281;-43
2021/12/04 05:38:54;;;;;;;0.52;0.40;;;27.30;43.60;;;;;;5084087;28;20267;-43
2021/12/04 05:41:25;;;;;;;0.55;0.20;;;27.40;43.80;;;;;;5085893;28;20305;-42
2021/12/04 05:43:59;;;;;;;0.93;0.43;;;27.40;44.00;;;;;;5085476;28;20202;-47
2021/12/04 05:46:35;;;;;;;1.13;0.30;;;27.40;44.10;;;;;;5083819;28;20208;-53
2021/12/04 05:49:10;;;;;;;0.57;0.30;;;27.50;44.40;;;;;;5084757;28;20223;-42
2021/12/04 05:54:44;;;;;;;0.95;0.43;;;27.50;44.60;;;;;;5071472;28;20194;-42
2021/12/04 05:57:15;;;;;;;0.70;0.38;;;27.60;44.80;;;;;;5085251;28;20295;-45
2021/12/04 05:59:48;;;;;;;1.27;0.60;;;27.60;44.90;;;;;;5079993;28;20218;-44
2021/12/04 06:02:19;;;;;;;0.85;0.38;;;27.60;44.90;;;;;;5085458;28;20759;-42
2021/12/04 06:04:49;;;;;;;0.52;0.30;;;27.60;45.00;;;;;;5083942;28;20202;-44
2021/12/04 06:07:20;;;;;;;1.67;0.40;;;27.70;45.10;;;;;;5085252;28;20281;-43
2021/12/04 06:09:50;;;;;;;1.13;0.40;;;27.70;45.10;;;;;;5083952;28;20285;-43
2021/12/04 06:12:21;;;;;;;0.52;0.30;;;27.70;45.20;;;;;;5085951;28;20894;-42
2021/12/04 06:14:54;;;;;;;0.98;0.45;;;27.80;45.30;;;;;;5089024;28;20209;-43
2021/12/04 06:17:25;;;;;;;1.17;0.32;;;27.80;45.30;;;;;;5086826;28;20333;-42
2021/12/04 06:22:43;;;;;;;0.63;0.30;;;27.80;45.30;;;;;;5089492;28;20271;-42
2021/12/04 06:25:19;;;;;;;0.45;0.30;;;27.90;45.50;;;;;;5089297;28;20832;-45
2021/12/04 06:27:50;;;;;;;0.43;0.30;;;27.90;45.50;;;;;;5087671;28;20214;-49
2021/12/04 06:30:23;;;;;;;0.55;0.30;;;27.90;45.70;;;;;;5088882;28;20277;-42
2021/12/04 06:32:54;;;;;;;1.05;0.40;;;27.90;45.60;;;;;;5088349;28;20613;-44
2021/12/04 06:35:26;;;;;;;0.93;0.50;;;27.90;45.50;;;;;;5087792;28;20198;-42
2021/12/04 06:37:56;;;;;;;0.30;0.30;;;27.90;45.30;;;;;;5088089;28;20300;-42
2021/12/04 06:40:28;;;;;;;0.38;0.30;;;28.00;45.40;;;;;;5088480;28;20190;-45
2021/12/04 06:42:59;;;;;;;1.45;0.40;;;27.90;45.30;;;;;;5087216;28;20206;-42
2021/12/04 06:45:33;;;;;;;0.70;0.40;;;27.90;45.20;;;;;;5087930;28;20734;-43
2021/12/04 06:48:06;;;;;;;0.50;0.30;;;28.00;45.10;;;;;;5086825;28;20225;-42
2021/12/04 06:50:40;;;;;;;0.85;0.40;;;28.00;45.10;;;;;;5087879;28;20194;-42
2021/12/04 06:53:22;;;;;;;0.40;0.35;;;28.00;45.10;;;;;;5086681;28;20214;-42
2021/12/04 06:55:56;;;;;;;0.77;0.55;;;28.00;45.10;;;;;;5086877;28;20280;-42
2021/12/04 06:58:29;;;;;;;1.77;0.30;;;28.00;45.10;;;;;;5086077;28;20222;-42
2021/12/04 07:01:02;;;;;;;0.77;0.45;;;27.90;45.30;;;;;;5086497;28;20284;-42
2021/12/04 07:03:32;;;;;;;1.02;0.40;;;27.90;45.50;;;;;;5087062;28;20296;-42
2021/12/04 07:06:03;;;;;;;0.75;0.40;;;28.00;45.70;;;;;;5081903;28;20289;-42
2021/12/04 07:08:33;;;;;;;0.77;0.32;;;27.90;45.80;;;;;;5086958;28;20265;-43
2021/12/04 07:11:05;;;;;;;1.90;0.30;;;27.90;45.80;;;;;;5087891;28;20638;-42
2021/12/04 07:13:36;;;;;;;0.52;0.50;;;27.90;45.80;;;;;;5089150;28;20305;-43
2021/12/04 07:16:11;;;;;;;3.10;0.70;;;27.90;45.80;;;;;;5087217;28;20277;-44
2021/12/04 07:18:42;;;;;;;1.30;0.45;;;27.90;45.80;;;;;;5084109;28;20246;-42
2021/12/04 07:21:12;;;;;;;1.90;0.43;;;27.90;45.80;;;;;;5082780;28;20982;-46
2021/12/04 07:23:43;;;;;;;1.58;0.50;;;27.90;45.70;;;;;;5085261;28;20705;-44
2021/12/04 07:26:14;;;;;;;1.58;0.50;;;27.90;45.70;;;;;;5086350;28;20735;-42
2021/12/04 07:28:44;;;;;;;3.00;0.75;;;27.90;45.60;;;;;;5085517;28;20254;-42
2021/12/04 07:31:17;;;;;;;2.15;0.50;;;27.90;45.70;;;;;;5085822;28;20285;-42
2021/12/04 07:33:49;;;;;;;1.77;0.63;;;27.90;45.70;;;;;;5086165;28;20865;-45
2021/12/04 07:36:20;;;;;;;0.68;0.50;;;27.80;45.80;;;;;;5083098;28;21005;-43
2021/12/04 07:38:50;;;;;;;2.05;0.50;;;27.90;45.90;;;;;;5086346;28;20297;-42
2021/12/04 07:41:21;;;;;;;0.77;0.40;;;27.80;45.90;;;;;;5084852;28;20234;-43
2021/12/04 07:43:51;;;;;;;0.80;0.50;;;27.80;46.00;;;;;;5085660;28;20208;-42
2021/12/04 07:46:24;;;;;;;1.08;0.40;;;27.80;46.10;;;;;;5085607;28;20297;-42
2021/12/04 07:48:54;;;;;;;1.15;0.50;;;27.80;46.20;;;;;;5085967;28;20222;-42
2021/12/04 07:51:25;;;;;;;0.70;0.47;;;27.70;46.20;;;;;;5085774;28;20309;-42
2021/12/04 07:53:55;;;;;;;0.40;0.32;;;27.70;46.20;;;;;;5086271;28;20305;-43
2021/12/04 07:56:25;;;;;;;0.63;0.50;;;27.70;46.30;;;;;;5088079;28;20741;-42
2021/12/04 07:58:56;;;;;;;1.88;0.70;;;27.70;46.30;;;;;;5087375;28;20641;-44
2021/12/04 08:01:28;;;;;;;0.90;0.50;;;27.70;46.30;;;;;;5087811;28;20281;-43
2021/12/04 08:03:59;;;;;;;1.88;0.40;;;27.60;46.30;;;;;;5086626;28;20285;-43
2021/12/04 08:06:32;;;;;;;1.15;0.40;;;27.60;46.40;;;;;;5079244;28;20234;-45
2021/12/04 08:09:03;;;;;;;0.45;0.35;;;27.60;46.40;;;;;;5086131;28;20218;-46
2021/12/04 08:11:33;;;;;;;0.47;0.32;;;27.60;46.50;;;;;;5082122;28;20285;-42
2021/12/04 08:14:05;;;;;;;1.55;0.50;;;27.60;46.60;;;;;;5085575;28;20786;-46
2021/12/04 08:16:38;;;;;;;0.98;0.47;;;27.60;46.50;;;;;;5083948;28;20286;-47
2021/12/04 08:19:08;;;;;;;1.00;0.70;;;27.50;46.50;;;;;;5085344;28;20308;-49
2021/12/04 08:21:39;;;;;;;3.25;0.88;;;27.50;46.30;;;;;;5086945;28;20195;-49
2021/12/04 08:24:09;;;;;;;2.05;0.80;;;27.50;46.30;;;;;;5086859;28;20284;-58
2021/12/04 08:26:41;;;;;;;2.30;0.80;;;27.50;46.30;;;;;;5086018;28;20233;-49
2021/12/04 08:29:12;;;;;;;2.05;0.80;;;27.50;46.20;;;;;;5073979;28;20221;-47
2021/12/04 08:31:46;;;;;;;2.42;0.85;;;27.40;46.20;;;;;;5086064;28;20249;-57
2021/12/04 08:34:18;;;;;;;1.70;0.90;;;27.40;46.30;;;;;;5083325;28;20308;-43
2021/12/04 08:36:50;;;;;;;1.70;0.80;;;27.40;46.40;;;;;;5084523;28;20209;-44
2021/12/04 08:39:21;;;;;;;1.17;0.77;;;27.40;46.60;;;;;;5085942;28;20217;-54
2021/12/04 08:41:52;;;;;;;0.70;0.57;;;27.40;46.70;;;;;;5084058;28;20213;-52
2021/12/04 08:44:22;;;;;;;1.80;0.98;;;27.30;46.70;;;;;;5085690;28;20199;-58
2021/12/04 08:46:55;;;;;;;2.53;0.80;;;27.30;46.80;;;;;;5081317;28;20340;-49
2021/12/04 08:49:26;;;;;;;1.90;0.77;;;27.30;46.80;;;;;;5083055;28;20707;-51
2021/12/04 08:51:56;;;;;;;1.55;0.80;;;27.30;46.80;;;;;;5083388;28;20293;-46
2021/12/04 08:54:27;;;;;;;3.28;1.02;;;27.30;46.80;;;;;;5074562;28;20694;-42
2021/12/04 08:56:58;;;;;;;1.05;0.70;;;27.20;46.70;;;;;;5085722;28;20323;-42
2021/12/04 08:59:29;;;;;;;0.90;0.60;;;27.20;46.70;;;;;;5083923;28;20811;-43
2021/12/04 09:02:01;;;;;;;1.80;0.77;;;27.20;47.30;;;;;;5084053;28;20198;-42
2021/12/04 09:04:34;;;;;;;1.50;0.60;;;27.20;46.70;;;;;;5083732;28;20195;-46
2021/12/04 09:07:06;;;;;;;2.45;0.80;;;27.20;46.70;;;;;;5071462;28;20195;-47
2021/12/04 09:09:37;;;;;;;1.58;0.77;;;27.10;46.70;;;;;;5081610;28;20277;-48
2021/12/04 09:12:11;;;;;;;1.20;0.70;;;27.10;46.70;;;;;;5079380;28;20873;-47
2021/12/04 09:14:43;;;;;;;1.40;0.80;;;27.10;46.80;;;;;;5076631;28;20312;-49
2021/12/04 09:17:18;;;;;;;1.88;0.63;;;27.10;46.90;;;;;;5078726;28;20679;-48
2021/12/04 09:19:49;;;;;;;1.65;0.60;;;27.00;46.80;;;;;;5077286;28;20202;-45
2021/12/04 09:22:24;;;;;;;1.70;0.70;;;27.00;46.90;;;;;;5078795;28;20749;-45
2021/12/04 09:24:57;;;;;;;1.30;0.70;;;27.00;46.90;;;;;;5083108;28;20212;-47
2021/12/04 09:30:39;;;;;;;1.40;0.65;;;26.90;47.00;;;;;;5072626;28;20345;-44
2021/12/04 10:12:39;;;;;;;1.02;0.50;;;26.60;47.40;;;;;;5074047;28;20205;-42
2021/12/04 10:20:57;;;;;;;1.27;0.70;;;26.50;47.40;;;;;;5074701;28;20206;-47
2021/12/04 10:34:40;;;;;;;0.95;0.70;;;26.50;47.60;;;;;;5077650;28;20233;-43
2021/12/04 10:37:12;;;;;;;2.05;0.80;;;26.40;47.50;;;;;;5079037;28;20203;-44
2021/12/04 10:39:44;;;;;;;1.38;0.90;;;26.40;47.60;;;;;;5080919;28;20194;-45
2021/12/04 10:42:17;;;;;;;1.08;0.75;;;26.40;47.60;;;;;;5078462;28;20283;-49
2021/12/04 10:44:51;;;;;;;1.38;0.73;;;26.40;47.70;;;;;;5077401;28;20532;-49
2021/12/04 10:47:24;;;;;;;2.15;1.00;;;26.30;47.60;;;;;;5078811;28;20194;-43
2021/12/04 10:50:07;;;;;;;1.67;0.60;;;26.30;47.70;;;;;;5085232;28;20202;-45
2021/12/04 10:52:51;;;;;;;1.25;0.55;;;26.30;47.70;;;;;;5085079;28;20244;-47
2021/12/04 10:55:27;;;;;;;2.15;0.80;;;26.30;47.70;;;;;;5075244;28;20313;-43
2021/12/04 11:03:54;;;;;;;1.30;0.60;;;26.20;47.80;;;;;;5054617;28;20269;-46
2021/12/04 11:26:37;;;;;;;1.48;0.70;;;26.00;47.90;;;;;;5072269;28;20202;-49
2021/12/04 11:35:24;;;;;;;1.30;0.52;;;26.00;48.10;;;;;;5072846;28;20290;-45
2021/12/04 11:38:14;;;;;;;1.02;0.90;;;26.00;48.20;;;;;;5073442;28;20276;-46
2021/12/04 11:41:09;;;;;;;0.52;0.50;;;26.00;48.20;;;;;;5083497;28;20503;-48
2021/12/04 11:43:51;;;;;;;0.57;0.50;;;25.90;48.10;;;;;;5073347;28;20199;-44
2021/12/04 11:46:28;;;;;;;0.75;0.60;;;25.90;48.20;;;;;;5071728;28;20195;-43
2021/12/04 11:49:00;;;;;;;1.27;0.60;;;25.90;48.80;;;;;;5072352;28;20263;-43
2021/12/04 11:51:31;;;;;;;0.93;0.52;;;25.90;48.20;;;;;;5072397;28;20251;-42
2021/12/04 11:54:11;;;;;;;0.70;0.63;;;25.80;48.20;;;;;;5070189;28;20309;-42
2021/12/04 11:56:42;;;;;;;0.80;0.60;;;25.80;48.20;;;;;;5087850;28;20285;-42
2021/12/04 11:59:13;;;;;;;1.35;0.60;;;25.80;48.20;;;;;;5083377;28;20309;-42
2021/12/04 12:01:45;;;;;;;0.93;0.40;;;25.80;48.30;;;;;;5071972;28;20293;-42
2021/12/04 12:04:16;;;;;;;2.17;0.60;;;25.80;48.40;;;;;;5073112;28;20207;-43
2021/12/04 12:06:47;;;;;;;0.90;0.50;;;25.80;48.30;;;;;;5073203;28;20190;-48
2021/12/04 12:09:19;;;;;;;0.63;0.50;;;25.80;48.30;;;;;;5070583;28;20647;-55
2021/12/04 12:11:55;;;;;;;1.58;0.80;;;25.70;48.30;;;;;;5072142;28;20195;-55
2021/12/04 12:14:38;;;;;;;0.60;0.40;;;25.70;48.30;;;;;;5071559;28;20313;-51
2021/12/04 12:17:11;;;;;;;0.88;0.50;;;25.70;48.30;;;;;;5077957;28;20214;-45
2021/12/04 12:19:50;;;;;;;1.17;0.60;;;25.70;48.30;;;;;;5071561;28;20232;-45
2021/12/04 12:22:38;;;;;;;0.45;0.45;;;25.70;48.40;;;;;;5087297;28;20284;-43
2021/12/04 12:25:27;;;;;;;0.75;0.75;;;25.70;48.40;;;;;;5068960;28;20214;-42
2021/12/04 12:33:57;;;;;;;1.05;0.50;;;25.60;48.40;;;;;;5089558;28;20275;-42
2021/12/04 12:36:28;;;;;;;1.38;0.60;;;25.60;48.40;;;;;;5086687;28;20743;-43
2021/12/04 12:39:01;;;;;;;1.02;0.50;;;25.60;48.40;;;;;;5070314;28;20218;-42
2021/12/04 12:41:34;;;;;;;1.38;0.40;;;25.50;48.50;;;;;;5075433;28;20286;-42
2021/12/04 12:44:09;;;;;;;0.95;0.50;;;25.50;48.50;;;;;;5071711;28;20207;-42
2021/12/04 12:46:43;;;;;;;0.73;0.50;;;25.50;48.50;;;;;;5075312;28;20713;-43
2021/12/04 12:49:33;;;;;;;0.77;0.40;;;25.50;48.50;;;;;;5078625;28;20744;-42
2021/12/04 12:52:07;;;;;;;1.25;0.45;;;25.50;48.60;;;;;;5074900;28;20203;-44
2021/12/04 12:54:39;;;;;;;1.50;0.73;;;25.50;48.50;;;;;;5072410;28;20217;-45
2021/12/04 12:57:13;;;;;;;0.98;0.50;;;25.50;48.50;;;;;;5072293;28;20277;-42
2021/12/04 13:11:35;;;;;;;0.75;0.50;;;25.40;48.60;;;;;;5095777;28;20225;-42
2021/12/04 13:11:42;;;;;;;0.60;0.40;;;25.40;48.60;;;;;;5035441;28;20685;-46
2021/12/04 13:14:14;;;;;;;0.35;0.32;;;25.40;48.50;;;;;;5071958;28;20237;-42
2021/12/04 13:16:46;;;;;;;1.05;0.45;;;25.40;48.60;;;;;;5082699;28;20191;-43
2021/12/04 13:19:19;;;;;;;0.90;0.60;;;25.40;48.60;;;;;;5076303;28;20226;-43
2021/12/04 13:21:55;;;;;;;0.50;0.50;;;25.30;48.60;;;;;;5078898;28;20721;-42
2021/12/04 13:24:27;;;;;;;1.00;0.57;;;25.30;48.60;;;;;;5087497;28;20280;-43
2021/12/04 13:26:59;;;;;;;0.90;0.50;;;25.30;48.70;;;;;;5084699;28;20204;-47
2021/12/04 13:29:30;;;;;;;0.73;0.52;;;25.30;48.60;;;;;;5074277;28;20314;-44
2021/12/04 13:32:05;;;;;;;0.65;0.50;;;25.30;48.60;;;;;;5070690;28;20200;-45
2021/12/04 13:34:37;;;;;;;0.40;0.30;;;25.30;48.70;;;;;;5073547;28;20716;-43
2021/12/04 13:37:11;;;;;;;0.90;0.60;;;25.20;48.60;;;;;;5071876;28;20199;-45
2021/12/04 13:39:43;;;;;;;0.30;0.30;;;25.30;48.60;;;;;;5070660;28;20230;-42
2021/12/04 13:42:13;;;;;;;0.63;0.50;;;25.30;48.60;;;;;;5070264;28;20198;-45
2021/12/04 13:44:44;;;;;;;1.20;0.32;;;25.20;48.60;;;;;;5071221;28;20249;-49
2021/12/04 13:47:16;;;;;;;0.50;0.50;;;25.20;48.60;;;;;;5077676;28;20190;-45
2021/12/04 13:50:00;;;;;;;1.23;0.30;;;25.20;48.60;;;;;;5070176;28;20618;-56
2021/12/04 13:52:33;;;;;;;0.70;0.40;;;25.20;48.70;;;;;;5084851;28;20229;-48
2021/12/04 13:55:10;;;;;;;0.55;0.55;;;25.20;48.70;;;;;;5083620;28;20232;-48
2021/12/04 13:57:42;;;;;;;0.63;0.43;;;25.20;48.70;;;;;;5077597;28;20305;-52
2021/12/04 14:00:14;;;;;;;1.00;0.52;;;25.20;48.70;;;;;;5082048;28;20206;-51
2021/12/04 14:02:46;;;;;;;0.30;0.30;;;25.10;48.60;;;;;;5070284;28;20559;-47
2021/12/04 14:05:18;;;;;;;1.50;0.57;;;25.10;48.70;;;;;;5070524;28;20572;-49
2021/12/04 14:07:55;;;;;;;0.65;0.43;;;25.10;48.70;;;;;;5069876;28;20219;-46
2021/12/04 14:10:27;;;;;;;0.80;0.50;;;25.10;48.70;;;;;;5071471;28;20292;-42
2021/12/04 14:12:58;;;;;;;0.40;0.40;;;25.10;48.80;;;;;;5069308;28;20205;-43
2021/12/04 14:15:30;;;;;;;0.57;0.40;;;25.10;48.70;;;;;;5069377;28;20249;-42
2021/12/04 14:18:03;;;;;;;1.67;0.35;;;25.10;48.90;;;;;;5070045;28;20306;-42
2021/12/04 14:20:34;;;;;;;0.30;0.30;;;25.10;48.80;;;;;;5083086;28;20285;-42
2021/12/04 14:23:07;;;;;;;0.65;0.30;;;25.00;48.80;;;;;;5075627;28;20658;-42
2021/12/04 14:25:42;;;;;;;0.40;0.30;;;25.00;48.80;;;;;;5071669;28;20291;-42
2021/12/04 14:28:14;;;;;;;0.22;0.22;;;25.00;48.80;;;;;;5070063;28;20787;-45
2021/12/04 14:30:47;;;;;;;0.60;0.40;;;25.00;48.80;;;;;;5071998;28;20869;-42
2021/12/04 14:33:20;;;;;;;0.57;0.32;;;25.00;48.80;;;;;;5088545;28;20206;-42
2021/12/04 14:35:53;;;;;;;0.47;0.38;;;25.00;48.80;;;;;;5074662;28;20225;-42
2021/12/04 14:38:27;;;;;;;0.40;0.40;;;25.00;48.90;;;;;;5073582;28;20227;-44
2021/12/04 14:41:01;;;;;;;0.47;0.32;;;25.00;48.80;;;;;;5072779;28;20633;-43
2021/12/04 14:43:35;;;;;;;0.57;0.32;;;25.00;48.90;;;;;;5074111;28;20199;-42
2021/12/04 14:46:08;;;;;;;0.80;0.40;;;25.00;48.90;;;;;;5077357;28;20198;-42
2021/12/04 14:48:41;;;;;;;0.60;0.50;;;25.00;48.90;;;;;;5076796;28;20293;-44
2021/12/04 14:51:15;;;;;;;0.40;0.32;;;25.00;48.90;;;;;;5077121;28;20195;-44
2021/12/04 14:53:51;;;;;;;0.75;0.30;;;24.90;48.90;;;;;;5081789;28;20219;-44
2021/12/04 14:56:23;;;;;;;0.63;0.40;;;24.90;49.00;;;;;;5072463;28;20316;-42
2021/12/04 14:58:53;;;;;;;1.50;0.30;;;24.90;49.00;;;;;;5080962;28;20297;-45
2021/12/04 15:01:26;;;;;;;0.60;0.38;;;24.90;49.00;;;;;;5073039;28;20280;-42
2021/12/04 15:04:00;;;;;;;0.40;0.40;;;24.90;49.00;;;;;;5072827;28;20201;-42
2021/12/04 15:06:37;;;;;;;0.77;0.60;;;24.90;49.10;;;;;;5075311;28;20685;-42
2021/12/04 15:09:14;;;;;;;0.50;0.40;;;24.90;49.10;;;;;;5087152;28;20244;-42
2021/12/04 15:11:46;;;;;;;0.50;0.40;;;24.90;49.10;;;;;;5072850;28;20892;-43
2021/12/04 15:14:19;;;;;;;0.65;0.30;;;24.90;49.10;;;;;;5082869;28;20259;-42
2021/12/04 15:16:58;;;;;;;0.35;0.35;;;24.90;49.00;;;;;;5079070;28;20198;-47
2021/12/04 15:19:39;;;;;;;0.43;0.38;;;24.90;49.10;;;;;;5074079;28;20221;-42
2021/12/04 15:22:16;;;;;;;0.43;0.40;;;24.90;49.10;;;;;;5071465;28;20257;-42
2021/12/04 15:24:48;;;;;;;0.22;0.22;;;24.90;49.10;;;;;;5072024;28;20281;-42
2021/12/04 15:27:23;;;;;;;0.40;0.40;;;24.80;49.00;;;;;;5073023;28;20229;-42
2021/12/04 15:29:54;;;;;;;0.45;0.45;;;24.80;49.10;;;;;;5072407;28;20209;-42
2021/12/04 15:32:27;;;;;;;0.30;0.30;;;24.80;49.10;;;;;;5072174;28;20199;-42
2021/12/04 15:35:04;;;;;;;0.50;0.40;;;24.80;49.10;;;;;;5070800;28;20309;-42
2021/12/04 15:37:39;;;;;;;0.65;0.35;;;24.80;49.20;;;;;;5071718;28;20635;-42
2021/12/04 15:40:28;;;;;;;0.32;0.30;;;24.70;49.20;;;;;;5072324;28;20204;-42
2021/12/04 15:43:08;;;;;;;0.30;0.30;;;24.70;49.30;;;;;;5073652;28;20206;-42
2021/12/04 15:45:47;;;;;;;0.30;0.30;;;24.70;49.20;;;;;;5073299;28;20199;-42
2021/12/04 15:51:46;;;;;;;0.30;0.30;;;24.70;49.20;;;;;;5075916;28;20291;-46
2021/12/04 15:54:23;;;;;;;0.20;0.20;;;24.70;49.20;;;;;;5073368;28;20217;-53
2021/12/04 15:56:56;;;;;;;0.40;0.30;;;24.70;49.20;;;;;;5073022;28;20199;-44
2021/12/04 15:59:30;;;;;;;0.30;0.30;;;24.70;49.20;;;;;;5071588;28;20594;-42